Pagrindinis puslapis
METAR-TAF:

METAR-TAF

Oro uostai :

Čiangmajus, Tailandas

platuma: 18-47N, ilguma: 098-59E, Aukštis: 312 m

Dabartinis oras

Ataskaita buvo paskelbta 23 minutes, ne 12:00 UTC
Vėjas 3 kt iš Vakarų, svyruoja nuo Vakarų/Pietvakarių ir Šiaurės
Temperatūra 27°C
Drėgmė 70%
Slėgis 1014 hPa
Matomumas 10 km arba daugiau
Mažai debesys ne aukštis 3500 ft

METAR: VTCC 151200Z 28003KT 250V360 9999 FEW035 27/21 Q1014 NOSIG

Laikas: 19:23 (12:23 UTC)

Prognozė

Ataskaita buvo paskelbta 1 valandą ir 23 minutes, ne 11:00 UTC
Prognozė galioja nuo 15 metu 12 UTC su 16 metu 18 UTC
Vėjas 5 kt iš Pietų
Matomumas 10 km arba daugiau
Mažai debesys ne aukštis 3500 ft

TAF: VTCC 151100Z 1512/1618 18005KT 9999 FEW035

Orai ataskaitas ir orų prognozės (METAR, TAF).

turimą stotys yra geltonos ir raudonos taškus žemėlapyje.

Perkelti pele per norėdami pamatyti stoties vardą.

Tada spustelėkite, norėdami matyti oro stebėjimo ir prognozės.

Norėdami pakeisti žemėlapį: spustelėkite ant žalios mygtukų su juodo kryžiaus žemyn,; žalią mygtuką su brūkšneliu, jei norite nutolinti; arba žalių rodyklių gretimoms žemėlapius.


METAR-TAF: